createdAt,value
2023-03-03T00:02:27.504Z,16.40
2023-03-03T00:04:54.761Z,16.70
2023-03-03T00:07:22.836Z,20.70
2023-03-03T00:09:51.274Z,20.00
2023-03-03T00:12:48.016Z,19.20
2023-03-03T00:15:21.230Z,15.80
2023-03-03T00:17:57.008Z,22.00
2023-03-03T00:20:37.439Z,18.70
2023-03-03T00:23:42.121Z,20.80
2023-03-03T00:26:21.484Z,23.10
2023-03-03T00:28:51.295Z,18.50
2023-03-03T00:31:33.778Z,20.10
2023-03-03T00:34:19.700Z,17.10
2023-03-03T00:36:56.874Z,16.10
2023-03-03T00:40:02.488Z,20.70
2023-03-03T00:42:55.703Z,18.90
2023-03-03T00:45:46.831Z,17.50
2023-03-03T00:48:27.044Z,24.10
2023-03-03T00:50:59.453Z,19.50
2023-03-03T00:53:30.223Z,27.40
2023-03-03T00:55:59.145Z,22.20
2023-03-03T00:58:30.405Z,22.50
2023-03-03T01:00:58.975Z,25.90
2023-03-03T01:03:35.926Z,20.40
2023-03-03T01:06:06.711Z,22.20
2023-03-03T01:08:36.370Z,21.90
2023-03-03T01:11:11.554Z,22.60
2023-03-03T01:13:41.530Z,20.60
2023-03-03T01:16:19.861Z,24.60
2023-03-03T01:18:54.322Z,23.30
2023-03-03T01:21:22.168Z,20.10
2023-03-03T01:23:51.545Z,19.20
2023-03-03T01:26:19.975Z,22.20
2023-03-03T01:28:53.035Z,24.90
2023-03-03T01:31:20.941Z,21.80
2023-03-03T01:33:48.950Z,21.20
2023-03-03T01:36:24.854Z,22.30
2023-03-03T01:38:58.606Z,24.90
2023-03-03T01:41:30.045Z,24.40
2023-03-03T01:46:50.199Z,26.20
2023-03-03T01:49:43.651Z,22.70
2023-03-03T01:52:26.955Z,31.90
2023-03-03T01:54:59.151Z,30.50
2023-03-03T01:57:32.098Z,22.90
2023-03-03T02:00:00.575Z,23.80
2023-03-03T02:02:28.987Z,26.80
2023-03-03T02:04:56.342Z,23.00
2023-03-03T02:07:26.858Z,30.50
2023-03-03T02:10:14.845Z,26.30
2023-03-03T02:12:45.515Z,23.70
2023-03-03T02:15:40.529Z,23.80
2023-03-03T02:18:14.970Z,22.80
2023-03-03T02:21:20.059Z,34.60
2023-03-03T02:24:12.123Z,22.20
2023-03-03T02:29:22.791Z,26.00
2023-03-03T02:31:50.506Z,21.30
2023-03-03T02:34:18.964Z,24.60
2023-03-03T02:36:46.334Z,19.60
2023-03-03T02:39:27.842Z,22.20
2023-03-03T02:42:16.649Z,30.30
2023-03-03T02:45:04.625Z,28.20
2023-03-03T02:47:36.911Z,30.20
2023-03-03T02:50:04.568Z,28.20
2023-03-03T02:52:34.950Z,50.00
2023-03-03T02:55:07.412Z,28.50
2023-03-03T02:57:36.819Z,31.00
2023-03-03T03:03:04.407Z,27.90
2023-03-03T03:05:35.159Z,29.50
2023-03-03T03:08:03.749Z,26.80
2023-03-03T03:10:36.527Z,33.60
2023-03-03T03:13:10.187Z,30.40
2023-03-03T03:15:39.197Z,26.60
2023-03-03T03:18:08.137Z,27.40
2023-03-03T03:20:48.546Z,23.90
2023-03-03T03:23:17.892Z,23.50
2023-03-03T03:25:48.097Z,25.00
2023-03-03T03:28:23.352Z,23.90
2023-03-03T03:30:53.140Z,25.60
2023-03-03T03:33:21.122Z,24.60
2023-03-03T03:35:50.251Z,26.60
2023-03-03T03:38:19.481Z,27.70
2023-03-03T03:40:50.273Z,27.70
2023-03-03T03:43:18.667Z,28.30
2023-03-03T03:45:47.126Z,27.80
2023-03-03T03:48:17.577Z,33.30
2023-03-03T03:50:51.071Z,33.80
2023-03-03T03:53:26.584Z,30.70
2023-03-03T03:55:54.129Z,26.50
2023-03-03T03:58:25.490Z,19.10
2023-03-03T04:01:04.548Z,20.80
2023-03-03T04:03:44.991Z,22.30
2023-03-03T04:06:16.048Z,23.10
2023-03-03T04:08:43.300Z,19.50
2023-03-03T04:11:11.076Z,33.80
2023-03-03T04:13:39.035Z,25.30
2023-03-03T04:16:07.606Z,24.30
2023-03-03T04:18:35.668Z,26.40
2023-03-03T04:21:05.818Z,22.50
2023-03-03T04:23:33.565Z,21.60
2023-03-03T04:26:02.024Z,23.70
2023-03-03T04:28:29.836Z,22.50
2023-03-03T04:30:59.387Z,20.90
2023-03-03T04:33:39.493Z,24.40
2023-03-03T04:36:11.690Z,23.30
2023-03-03T04:38:40.245Z,20.70
2023-03-03T04:41:12.210Z,22.40
2023-03-03T04:43:42.751Z,24.20
2023-03-03T04:46:35.320Z,24.20
2023-03-03T04:49:04.627Z,19.90
2023-03-03T04:51:35.103Z,27.00
2023-03-03T04:54:11.064Z,23.60
2023-03-03T04:56:39.643Z,22.30
2023-03-03T04:59:07.814Z,20.10
2023-03-03T05:01:35.263Z,21.10
2023-03-03T05:04:07.573Z,21.30
2023-03-03T05:13:43.070Z,21.30
2023-03-03T05:16:10.484Z,23.40
2023-03-03T05:18:37.639Z,18.30
2023-03-03T05:21:10.893Z,27.00
2023-03-03T05:23:40.381Z,25.30
2023-03-03T05:26:10.229Z,23.20
2023-03-03T05:28:39.557Z,20.20
2023-03-03T05:31:13.026Z,19.80
2023-03-03T05:33:43.367Z,31.40
2023-03-03T05:36:12.530Z,24.00
2023-03-03T05:38:49.039Z,25.30
2023-03-03T05:41:16.602Z,29.00
2023-03-03T05:43:49.798Z,24.30
2023-03-03T05:46:18.796Z,18.70
2023-03-03T05:48:53.290Z,22.70
2023-03-03T05:51:48.384Z,28.80
2023-03-03T05:54:20.345Z,23.90
2023-03-03T05:56:49.055Z,23.10
2023-03-03T05:59:45.463Z,21.60
2023-03-03T06:02:14.143Z,22.80
2023-03-03T06:04:48.780Z,25.20
2023-03-03T06:07:27.553Z,23.30
2023-03-03T06:09:56.539Z,26.70
2023-03-03T06:12:35.056Z,29.00
2023-03-03T06:15:08.865Z,23.60
2023-03-03T06:17:40.087Z,24.50
2023-03-03T06:27:33.835Z,40.00
2023-03-03T06:30:10.765Z,28.20
2023-03-03T06:32:48.163Z,29.10
2023-03-03T06:35:18.388Z,22.40
2023-03-03T06:37:50.471Z,36.80
2023-03-03T06:40:19.352Z,28.90
2023-03-03T06:45:17.591Z,25.70
2023-03-03T06:47:50.312Z,26.60
2023-03-03T06:50:20.508Z,31.30
2023-03-03T06:52:48.800Z,25.70
2023-03-03T06:55:26.808Z,30.30
2023-03-03T06:57:55.527Z,25.10
2023-03-03T07:00:30.814Z,23.00
2023-03-03T07:03:14.925Z,18.60
2023-03-03T07:05:48.207Z,26.00
2023-03-03T07:08:23.179Z,27.00
2023-03-03T07:11:07.832Z,22.30
2023-03-03T07:13:43.612Z,26.20
2023-03-03T07:16:25.601Z,36.20
2023-03-03T07:19:03.863Z,45.70
2023-03-03T07:21:39.372Z,80.90
2023-03-03T07:24:24.574Z,108.10
2023-03-03T07:27:17.238Z,73.30
2023-03-03T07:29:47.844Z,48.40
2023-03-03T07:32:27.493Z,37.10
2023-03-03T07:34:55.856Z,25.70
2023-03-03T07:37:32.253Z,22.80
2023-03-03T07:40:07.041Z,23.00
2023-03-03T07:42:44.095Z,20.60
2023-03-03T07:45:44.012Z,14.50
2023-03-03T07:48:47.724Z,13.60
2023-03-03T07:54:24.747Z,15.10
2023-03-03T07:57:34.637Z,18.30
2023-03-03T08:00:18.978Z,18.50
2023-03-03T08:03:05.252Z,19.80
2023-03-03T08:05:37.976Z,14.00
2023-03-03T08:08:11.491Z,17.60
2023-03-03T08:10:55.292Z,22.40
2023-03-03T08:13:55.214Z,18.60
2023-03-03T08:16:35.406Z,17.70
2023-03-03T08:19:05.974Z,21.60
2023-03-03T08:21:34.201Z,17.00
2023-03-03T08:24:06.740Z,13.70
2023-03-03T08:26:37.889Z,16.40
2023-03-03T08:29:08.800Z,12.70
2023-03-03T08:31:41.612Z,9.30
2023-03-03T08:34:13.495Z,10.30
2023-03-03T08:36:41.755Z,10.80
2023-03-03T08:39:09.902Z,14.30
2023-03-03T08:41:43.346Z,8.30
2023-03-03T08:44:16.798Z,9.20
2023-03-03T08:46:47.416Z,8.40
2023-03-03T08:49:19.912Z,12.90
2023-03-03T08:51:48.210Z,10.60
2023-03-03T08:54:21.198Z,9.70
2023-03-03T08:56:49.599Z,10.10
2023-03-03T08:59:17.223Z,8.80
2023-03-03T09:01:45.075Z,10.50
2023-03-03T09:04:16.338Z,13.90
2023-03-03T09:06:44.019Z,9.90
2023-03-03T09:09:19.353Z,10.80
2023-03-03T09:11:58.346Z,9.80
2023-03-03T09:14:29.944Z,11.40
2023-03-03T09:17:02.830Z,8.90
2023-03-03T09:19:37.207Z,13.80
2023-03-03T09:22:23.998Z,12.10
2023-03-03T09:24:53.923Z,15.50
2023-03-03T09:27:31.322Z,9.60
2023-03-03T09:30:12.219Z,12.10
2023-03-03T09:32:39.898Z,17.40
2023-03-03T09:35:27.477Z,7.10
2023-03-03T09:37:57.405Z,11.10
2023-03-03T09:40:56.189Z,14.90
2023-03-03T09:44:11.782Z,12.40
2023-03-03T09:47:13.460Z,8.90
2023-03-03T09:50:31.987Z,12.30
2023-03-03T09:55:41.775Z,9.20
2023-03-03T09:58:31.732Z,9.20
2023-03-03T10:01:15.839Z,11.00
2023-03-03T10:04:17.042Z,12.50
2023-03-03T10:07:17.816Z,15.20
2023-03-03T10:10:07.995Z,12.10
2023-03-03T10:12:58.961Z,13.20
2023-03-03T10:15:49.060Z,15.50
2023-03-03T10:18:42.212Z,12.30
2023-03-03T10:21:50.437Z,17.90
2023-03-03T10:24:20.640Z,10.50
2023-03-03T10:27:26.191Z,13.10
2023-03-03T10:30:42.608Z,9.10
2023-03-03T10:36:30.752Z,8.80
2023-03-03T10:39:23.408Z,22.40
2023-03-03T10:42:32.894Z,10.30
2023-03-03T10:45:27.309Z,15.30
2023-03-03T10:48:09.333Z,19.10
2023-03-03T10:51:18.157Z,14.30
2023-03-03T10:54:32.629Z,14.80
2023-03-03T10:57:16.165Z,11.30
2023-03-03T11:00:15.565Z,10.00
2023-03-03T11:03:16.805Z,14.00
2023-03-03T11:06:18.553Z,16.40
2023-03-03T11:09:08.984Z,11.60
2023-03-03T11:11:52.117Z,14.90
2023-03-03T11:15:02.564Z,10.30
2023-03-03T11:18:23.834Z,11.30
2023-03-03T11:21:02.945Z,13.50
2023-03-03T11:24:25.512Z,14.00
2023-03-03T11:27:23.692Z,12.70
2023-03-03T11:30:30.296Z,19.50
2023-03-03T11:33:06.094Z,12.50
2023-03-03T11:36:01.432Z,12.90
2023-03-03T11:38:44.728Z,14.00
2023-03-03T11:41:32.111Z,15.20
2023-03-03T11:44:28.934Z,14.60
2023-03-03T11:47:19.316Z,7.80
2023-03-03T11:50:03.549Z,10.30
2023-03-03T11:52:47.404Z,9.90
2023-03-03T11:55:28.307Z,8.20
2023-03-03T11:58:53.309Z,12.60
2023-03-03T12:01:59.567Z,9.20
2023-03-03T12:04:30.329Z,11.00
2023-03-03T12:07:37.035Z,8.00
2023-03-03T12:10:29.119Z,10.30
2023-03-03T12:13:25.239Z,6.90
2023-03-03T12:16:04.560Z,11.30
2023-03-03T12:18:52.483Z,18.80
2023-03-03T12:21:35.172Z,7.30
2023-03-03T12:24:16.548Z,7.40
2023-03-03T12:27:29.322Z,7.60
2023-03-03T12:30:26.929Z,14.40
2023-03-03T12:33:03.417Z,10.50
2023-03-03T12:36:16.649Z,10.50
2023-03-03T12:39:09.505Z,11.40
2023-03-03T12:41:42.712Z,7.10
2023-03-03T12:44:18.763Z,14.20
2023-03-03T12:47:03.186Z,7.40
2023-03-03T12:50:06.997Z,6.80
2023-03-03T12:52:57.942Z,7.70
2023-03-03T12:56:00.509Z,7.90
2023-03-03T12:59:11.175Z,8.90
2023-03-03T13:02:02.529Z,7.30
2023-03-03T13:04:47.504Z,12.20
2023-03-03T13:07:22.078Z,9.20
2023-03-03T13:10:02.697Z,9.50
2023-03-03T13:13:21.260Z,11.40
2023-03-03T13:15:59.633Z,5.80
2023-03-03T13:18:51.629Z,6.90
2023-03-03T13:21:35.898Z,7.40
2023-03-03T13:24:15.496Z,7.60
2023-03-03T13:26:44.854Z,8.70
2023-03-03T13:29:35.332Z,9.40
2023-03-03T13:32:16.047Z,7.90
2023-03-03T13:34:51.096Z,7.70
2023-03-03T13:37:46.027Z,6.70
2023-03-03T13:40:34.628Z,12.30
2023-03-03T13:43:11.165Z,11.60
2023-03-03T13:46:05.416Z,9.60
2023-03-03T13:48:49.396Z,12.40
2023-03-03T13:51:29.240Z,9.20
2023-03-03T13:54:57.612Z,11.10
2023-03-03T13:58:02.810Z,5.50
2023-03-03T14:00:57.098Z,7.90
2023-03-03T14:04:09.542Z,7.50
2023-03-03T14:06:40.853Z,6.30
2023-03-03T14:09:56.833Z,6.60
2023-03-03T14:12:47.413Z,9.70
2023-03-03T14:15:46.505Z,8.60
2023-03-03T14:18:41.829Z,6.40
2023-03-03T14:21:30.933Z,16.80
2023-03-03T14:24:18.254Z,8.10
2023-03-03T14:27:00.796Z,12.20
2023-03-03T14:29:35.193Z,16.80
2023-03-03T14:32:44.837Z,7.30
2023-03-03T14:35:25.561Z,8.90
2023-03-03T14:38:26.498Z,8.60
2023-03-03T14:41:32.097Z,7.60
2023-03-03T14:47:35.134Z,8.80
2023-03-03T14:50:31.024Z,11.90
2023-03-03T14:53:16.338Z,13.20
2023-03-03T14:56:06.092Z,13.30
2023-03-03T14:58:46.120Z,16.40
2023-03-03T15:01:46.335Z,17.50
2023-03-03T15:04:16.294Z,19.80
2023-03-03T15:07:42.537Z,24.40
2023-03-03T15:10:46.324Z,21.10
2023-03-03T15:13:20.818Z,21.90
2023-03-03T15:16:45.014Z,22.00
2023-03-03T15:19:50.329Z,29.50
2023-03-03T15:22:40.188Z,22.80
2023-03-03T15:25:43.968Z,26.20
2023-03-03T15:29:02.677Z,26.80
2023-03-03T15:34:59.476Z,30.10
2023-03-03T15:37:52.247Z,25.30
2023-03-03T15:40:34.297Z,24.60
2023-03-03T15:43:46.762Z,22.20
2023-03-03T15:46:47.305Z,22.80
2023-03-03T15:49:38.473Z,21.50
2023-03-03T15:52:37.116Z,20.90
2023-03-03T15:55:36.706Z,24.40
2023-03-03T15:58:39.871Z,21.80
2023-03-03T16:01:20.305Z,27.50
2023-03-03T16:04:17.866Z,28.20
2023-03-03T16:07:01.026Z,24.20
2023-03-03T16:09:38.779Z,21.40
2023-03-03T16:12:44.758Z,25.10
2023-03-03T16:15:20.828Z,27.60
2023-03-03T16:17:59.020Z,25.80
2023-03-03T16:21:05.012Z,23.10
2023-03-03T16:24:11.335Z,22.90
2023-03-03T16:27:05.032Z,18.60
2023-03-03T16:29:50.162Z,21.30
2023-03-03T16:32:44.188Z,20.80
2023-03-03T16:35:30.998Z,19.00
2023-03-03T16:53:54.072Z,19.00
2023-03-03T16:57:03.097Z,19.90
2023-03-03T17:00:00.663Z,19.60
2023-03-03T17:03:16.063Z,15.70
2023-03-03T17:07:02.055Z,21.70
2023-03-03T17:09:33.014Z,18.30
2023-03-03T17:12:13.365Z,18.40
2023-03-03T17:15:01.032Z,15.10
2023-03-03T17:18:00.441Z,18.20
2023-03-03T17:20:50.943Z,17.40
2023-03-03T17:23:31.012Z,26.10
2023-03-03T17:26:08.683Z,16.50
2023-03-03T17:29:09.912Z,17.10
2023-03-03T17:32:07.878Z,16.70
2023-03-03T17:35:02.267Z,17.40
2023-03-03T17:38:21.562Z,23.80
2023-03-03T17:41:41.483Z,20.10
2023-03-03T17:44:57.955Z,18.20
2023-03-03T17:47:47.894Z,18.50
2023-03-03T17:50:59.436Z,17.00
2023-03-03T17:54:00.004Z,20.70
2023-03-03T17:57:15.709Z,13.20
2023-03-03T18:00:17.034Z,19.10
2023-03-03T18:03:15.046Z,16.30
2023-03-03T18:06:07.962Z,19.50
2023-03-03T18:09:14.685Z,19.10
2023-03-03T18:12:41.485Z,13.50
2023-03-03T18:18:24.781Z,15.60
2023-03-03T18:21:15.442Z,19.50
2023-03-03T18:23:45.854Z,11.50
2023-03-03T18:26:35.633Z,18.40
2023-03-03T18:29:39.184Z,15.70
2023-03-03T18:32:24.057Z,15.80
2023-03-03T18:35:44.446Z,14.60
2023-03-03T18:41:34.191Z,18.10
2023-03-03T18:44:29.077Z,24.60
2023-03-03T18:47:12.763Z,19.10
2023-03-03T18:49:48.402Z,19.70
2023-03-03T18:52:32.751Z,21.70
2023-03-03T18:55:08.880Z,19.20
2023-03-03T18:57:42.694Z,23.00
2023-03-03T19:00:17.173Z,22.80
2023-03-03T19:05:37.075Z,24.30
2023-03-03T19:08:56.201Z,26.30
2023-03-03T19:12:02.957Z,25.70
2023-03-03T19:15:00.325Z,27.10
2023-03-03T19:17:50.364Z,35.10
2023-03-03T19:20:40.953Z,28.80
2023-03-03T19:24:19.319Z,27.80
2023-03-03T19:30:31.006Z,30.20
2023-03-03T19:33:07.729Z,30.90
2023-03-03T19:36:04.255Z,29.10
2023-03-03T19:38:50.954Z,35.70
2023-03-03T19:42:02.272Z,40.30
2023-03-03T19:45:13.924Z,32.50
2023-03-03T19:48:36.477Z,30.80
2023-03-03T19:51:15.438Z,33.80
2023-03-03T19:54:04.031Z,33.70
2023-03-03T19:56:53.467Z,33.50
2023-03-03T20:00:02.762Z,30.10
2023-03-03T20:03:06.776Z,37.50
2023-03-03T20:06:20.957Z,37.70
2023-03-03T20:09:30.896Z,38.70
2023-03-03T20:12:47.897Z,35.10
2023-03-03T20:15:30.605Z,39.70
2023-03-03T20:19:06.912Z,52.50
2023-03-03T20:21:41.708Z,43.40
2023-03-03T20:24:48.771Z,34.70
2023-03-03T20:28:04.892Z,45.20
2023-03-03T20:31:08.730Z,38.20
2023-03-03T20:33:50.692Z,34.60
2023-03-03T20:36:28.189Z,36.90
2023-03-03T20:39:06.839Z,43.60
2023-03-03T20:42:07.453Z,47.70
2023-03-03T20:45:02.892Z,48.10
2023-03-03T20:47:36.400Z,38.90
2023-03-03T20:50:25.908Z,40.30
2023-03-03T20:53:33.714Z,44.10
2023-03-03T20:56:27.610Z,45.80
2023-03-03T20:59:24.204Z,45.60
2023-03-03T21:02:38.057Z,39.80
2023-03-03T21:05:27.217Z,38.60
2023-03-03T21:08:02.889Z,43.50
2023-03-03T21:10:42.551Z,37.80
2023-03-03T21:13:42.247Z,43.50
2023-03-03T21:16:25.157Z,41.40
2023-03-03T21:19:03.451Z,39.50
2023-03-03T21:21:39.840Z,40.90
2023-03-03T21:24:19.010Z,38.60
2023-03-03T21:27:24.285Z,34.50
2023-03-03T21:30:03.063Z,28.30
2023-03-03T21:32:45.804Z,30.80
2023-03-03T21:35:16.618Z,45.20
2023-03-03T21:37:54.546Z,39.60
2023-03-03T21:40:48.692Z,36.90
2023-03-03T21:43:34.693Z,37.30
2023-03-03T21:46:08.437Z,35.10
2023-03-03T21:48:39.972Z,36.90
2023-03-03T21:51:13.659Z,36.90
2023-03-03T21:53:42.406Z,37.20
2023-03-03T21:56:11.096Z,37.50
2023-03-03T21:58:38.241Z,35.80
2023-03-03T22:01:06.319Z,36.00
2023-03-03T22:03:40.298Z,37.10
2023-03-03T22:06:11.505Z,41.80
2023-03-03T22:08:46.964Z,42.20
2023-03-03T22:11:15.673Z,43.00
2023-03-03T22:13:44.997Z,34.20
2023-03-03T22:16:16.709Z,41.30
2023-03-03T22:18:45.549Z,34.40
2023-03-03T22:21:15.317Z,40.40
2023-03-03T22:23:43.458Z,39.80
2023-03-03T22:26:14.174Z,35.20
2023-03-03T22:28:44.330Z,39.90
2023-03-03T22:31:12.933Z,35.50
2023-03-03T22:33:40.564Z,34.50
2023-03-03T22:36:08.359Z,35.30
2023-03-03T22:38:42.900Z,40.60
2023-03-03T22:41:10.435Z,36.40
2023-03-03T22:43:38.252Z,35.30
2023-03-03T22:46:07.690Z,32.90
2023-03-03T22:48:35.562Z,33.50
2023-03-03T22:51:11.222Z,38.70
2023-03-03T22:53:45.937Z,34.60
2023-03-03T22:56:13.153Z,35.70
2023-03-03T22:58:41.684Z,40.70
2023-03-03T23:01:08.886Z,37.20
2023-03-03T23:03:36.694Z,35.50
2023-03-03T23:06:05.753Z,30.40
2023-03-03T23:08:32.859Z,38.10
2023-03-03T23:11:02.621Z,33.70
2023-03-03T23:13:35.306Z,30.10
2023-03-03T23:16:06.559Z,26.80
2023-03-03T23:18:35.306Z,32.00
2023-03-03T23:21:03.562Z,34.60
2023-03-03T23:23:37.007Z,34.70
2023-03-03T23:26:08.403Z,33.30
2023-03-03T23:28:37.306Z,36.90
2023-03-03T23:31:04.622Z,27.10
2023-03-03T23:33:34.903Z,28.50
2023-03-03T23:36:04.434Z,30.70
2023-03-03T23:38:34.765Z,29.20
2023-03-03T23:41:02.403Z,28.80
2023-03-03T23:43:35.095Z,32.70
2023-03-03T23:46:03.101Z,31.20
2023-03-03T23:48:32.254Z,29.80
2023-03-03T23:51:04.039Z,32.60
2023-03-03T23:53:33.180Z,30.80
2023-03-03T23:56:07.472Z,35.10
2023-03-03T23:58:41.284Z,33.30
